createdAt,value
2023-05-19T00:00:14.805Z,50.52
2023-05-19T00:03:05.085Z,49.45
2023-05-19T00:05:34.527Z,47.67
2023-05-19T00:08:04.351Z,49.83
2023-05-19T00:10:33.870Z,47.38
2023-05-19T00:13:04.734Z,47.84
2023-05-19T00:15:33.973Z,49.29
2023-05-19T00:18:03.442Z,48.02
2023-05-19T00:20:32.999Z,51.98
2023-05-19T00:23:02.431Z,52.08
2023-05-19T00:25:31.299Z,48.22
2023-05-19T00:28:00.732Z,49.30
2023-05-19T00:30:31.263Z,47.87
2023-05-19T00:33:00.810Z,51.28
2023-05-19T00:35:29.737Z,50.30
2023-05-19T00:38:00.475Z,51.83
2023-05-19T00:40:32.093Z,48.98
2023-05-19T00:43:02.275Z,48.15
2023-05-19T00:45:32.524Z,49.47
2023-05-19T00:48:02.084Z,53.31
2023-05-19T00:50:31.323Z,50.17
2023-05-19T00:53:00.848Z,50.02
2023-05-19T00:55:32.302Z,49.35
2023-05-19T00:58:01.881Z,49.12
2023-05-19T01:00:32.900Z,49.75
2023-05-19T01:03:11.237Z,50.36
2023-05-19T01:05:44.800Z,49.50
2023-05-19T01:08:14.293Z,50.05
2023-05-19T01:10:44.991Z,52.41
2023-05-19T01:13:14.359Z,55.67
2023-05-19T01:15:54.472Z,51.83
2023-05-19T01:18:27.333Z,52.57
2023-05-19T01:21:08.022Z,53.61
2023-05-19T01:23:43.503Z,51.12
2023-05-19T01:26:18.722Z,50.58
2023-05-19T01:29:09.295Z,52.84
2023-05-19T01:31:40.129Z,51.36
2023-05-19T01:34:10.838Z,50.46
2023-05-19T01:36:44.809Z,50.31
2023-05-19T01:39:15.381Z,51.54
2023-05-19T01:41:45.588Z,52.14
2023-05-19T01:44:16.093Z,55.17
2023-05-19T01:46:48.488Z,54.52
2023-05-19T01:49:17.843Z,52.15
2023-05-19T01:51:47.027Z,57.99
2023-05-19T01:54:16.262Z,55.75
2023-05-19T01:56:50.940Z,55.08
2023-05-19T01:59:25.249Z,54.57
2023-05-19T02:01:58.458Z,53.03
2023-05-19T02:04:39.241Z,53.60
2023-05-19T02:07:14.116Z,53.81
2023-05-19T02:10:02.766Z,52.66
2023-05-19T02:12:33.736Z,54.15
2023-05-19T02:15:06.150Z,55.82
2023-05-19T02:17:41.495Z,57.01
2023-05-19T02:20:12.490Z,57.42
2023-05-19T02:22:41.566Z,56.38
2023-05-19T02:25:11.417Z,55.82
2023-05-19T02:27:40.501Z,53.29
2023-05-19T02:33:58.993Z,55.32
2023-05-19T02:36:28.299Z,56.95
2023-05-19T02:38:57.413Z,55.29
2023-05-19T02:41:26.278Z,57.65
2023-05-19T02:43:55.744Z,54.75
2023-05-19T02:46:24.826Z,55.20
2023-05-19T02:48:55.180Z,53.82
2023-05-19T02:51:25.740Z,57.92
2023-05-19T02:53:54.916Z,52.77
2023-05-19T02:56:24.083Z,55.25
2023-05-19T02:58:53.241Z,59.02
2023-05-19T03:01:23.254Z,55.61
2023-05-19T03:03:52.736Z,56.07
2023-05-19T03:06:23.493Z,56.06
2023-05-19T03:08:54.108Z,54.91
2023-05-19T03:11:23.674Z,56.22
2023-05-19T03:13:52.881Z,58.61
2023-05-19T03:16:22.138Z,57.31
2023-05-19T03:18:51.372Z,54.33
2023-05-19T03:21:20.312Z,57.68
2023-05-19T03:23:49.619Z,58.55
2023-05-19T03:26:19.896Z,60.67
2023-05-19T03:28:49.165Z,60.16
2023-05-19T03:31:18.208Z,61.40
2023-05-19T03:33:47.484Z,60.03
2023-05-19T03:36:16.471Z,60.87
2023-05-19T03:38:45.777Z,62.84
2023-05-19T03:41:14.606Z,62.77
2023-05-19T03:43:45.345Z,62.77
2023-05-19T03:46:14.237Z,61.88
2023-05-19T03:48:49.162Z,60.61
2023-05-19T03:51:36.771Z,60.87
2023-05-19T03:54:26.267Z,59.90
2023-05-19T03:56:55.125Z,59.95
2023-05-19T03:59:25.955Z,60.01
2023-05-19T04:01:54.934Z,59.24
2023-05-19T04:04:24.094Z,61.56
2023-05-19T04:06:53.131Z,60.68
2023-05-19T04:09:24.024Z,62.56
2023-05-19T04:11:53.002Z,62.24
2023-05-19T04:14:22.125Z,61.42
2023-05-19T04:16:52.387Z,61.68
2023-05-19T04:19:21.614Z,62.70
2023-05-19T04:21:50.628Z,61.50
2023-05-19T04:24:19.851Z,63.37
2023-05-19T04:26:49.356Z,62.99
2023-05-19T04:29:20.603Z,64.25
2023-05-19T04:31:49.497Z,61.87
2023-05-19T04:34:20.653Z,61.56
2023-05-19T04:36:51.651Z,57.87
2023-05-19T04:39:24.136Z,59.84
2023-05-19T04:41:54.184Z,60.72
2023-05-19T04:44:23.293Z,62.37
2023-05-19T04:46:54.647Z,61.85
2023-05-19T04:49:26.982Z,60.85
2023-05-19T04:51:56.682Z,61.11
2023-05-19T04:54:30.649Z,60.99
2023-05-19T04:56:59.699Z,60.65
2023-05-19T04:59:31.452Z,59.75
2023-05-19T05:02:00.489Z,60.87
2023-05-19T05:04:33.815Z,60.99
2023-05-19T05:07:03.007Z,61.15
2023-05-19T05:09:32.210Z,61.71
2023-05-19T05:12:03.434Z,59.40
2023-05-19T05:14:33.113Z,61.04
2023-05-19T05:17:02.475Z,58.54
2023-05-19T05:19:33.581Z,58.07
2023-05-19T05:22:02.907Z,60.11
2023-05-19T05:24:32.961Z,59.59
2023-05-19T05:27:04.576Z,58.21
2023-05-19T05:29:35.247Z,58.75
2023-05-19T05:32:06.505Z,58.62
2023-05-19T05:34:38.198Z,59.23
2023-05-19T05:37:07.245Z,58.17
2023-05-19T05:39:37.241Z,61.39
2023-05-19T05:42:09.082Z,59.17
2023-05-19T05:44:38.523Z,58.27
2023-05-19T05:47:08.955Z,58.19
2023-05-19T05:49:40.457Z,58.25
2023-05-19T05:52:12.127Z,59.48
2023-05-19T05:54:47.480Z,60.18
2023-05-19T05:57:19.315Z,59.48
2023-05-19T05:59:48.827Z,58.24
2023-05-19T06:02:18.048Z,60.09
2023-05-19T06:04:48.935Z,59.95
2023-05-19T06:07:18.214Z,61.15
2023-05-19T06:09:47.610Z,58.98
2023-05-19T06:12:18.106Z,59.73
2023-05-19T06:14:50.686Z,60.61
2023-05-19T06:17:34.561Z,58.99
2023-05-19T06:20:06.552Z,58.94
2023-05-19T06:22:36.210Z,59.19
2023-05-19T06:25:09.029Z,58.26
2023-05-19T06:27:38.359Z,59.14
2023-05-19T06:30:08.896Z,59.01
2023-05-19T06:32:47.263Z,59.61
2023-05-19T06:35:18.145Z,59.21
2023-05-19T06:37:47.108Z,59.27
2023-05-19T06:40:16.721Z,58.31
2023-05-19T06:42:46.492Z,58.03
2023-05-19T06:45:24.617Z,60.04
2023-05-19T06:47:54.618Z,58.82
2023-05-19T06:50:25.464Z,58.33
2023-05-19T06:52:54.468Z,57.05
2023-05-19T06:55:23.777Z,57.58
2023-05-19T06:57:52.727Z,57.75
2023-05-19T07:00:23.958Z,57.13
2023-05-19T07:02:55.089Z,57.79
2023-05-19T07:05:25.777Z,57.59
2023-05-19T07:07:58.960Z,56.77
2023-05-19T07:10:30.978Z,57.11
2023-05-19T07:13:00.233Z,56.82
2023-05-19T07:15:33.259Z,57.47
2023-05-19T07:18:02.245Z,56.35
2023-05-19T07:20:33.853Z,56.16
2023-05-19T07:23:03.774Z,55.99
2023-05-19T07:25:33.559Z,56.50
2023-05-19T07:28:02.501Z,56.50
2023-05-19T07:30:31.771Z,56.00
2023-05-19T07:33:00.997Z,56.62
2023-05-19T07:35:30.277Z,55.56
2023-05-19T07:38:01.228Z,55.92
2023-05-19T07:40:31.087Z,56.39
2023-05-19T07:43:00.351Z,56.30
2023-05-19T07:45:29.786Z,55.51
2023-05-19T07:47:58.989Z,56.30
2023-05-19T07:50:28.109Z,55.96
2023-05-19T07:52:57.161Z,55.26
2023-05-19T07:55:27.908Z,55.37
2023-05-19T07:57:57.344Z,55.33
2023-05-19T08:00:26.478Z,55.47
2023-05-19T08:02:56.992Z,55.44
2023-05-19T08:05:29.825Z,54.96
2023-05-19T08:07:58.863Z,54.58
2023-05-19T08:10:30.028Z,54.48
2023-05-19T08:12:59.096Z,54.24
2023-05-19T08:15:28.252Z,54.23
2023-05-19T08:17:57.240Z,54.14
2023-05-19T08:20:26.380Z,54.19
2023-05-19T08:22:55.394Z,53.38
2023-05-19T08:25:24.531Z,53.21
2023-05-19T08:27:54.907Z,52.40
2023-05-19T08:30:24.466Z,52.20
2023-05-19T08:32:53.290Z,52.56
2023-05-19T08:35:22.530Z,51.92
2023-05-19T08:37:51.521Z,52.46
2023-05-19T08:40:21.525Z,51.97
2023-05-19T08:42:50.471Z,51.86
2023-05-19T08:45:20.998Z,51.78
2023-05-19T08:47:50.227Z,51.72
2023-05-19T08:50:24.952Z,50.43
2023-05-19T08:52:55.800Z,50.75
2023-05-19T08:55:31.271Z,51.37
2023-05-19T08:58:00.854Z,51.25
2023-05-19T09:00:31.837Z,50.90
2023-05-19T09:03:17.717Z,51.11
2023-05-19T09:05:51.911Z,51.10
2023-05-19T09:08:21.145Z,51.05
2023-05-19T09:10:50.338Z,50.84
2023-05-19T09:13:19.619Z,51.17
2023-05-19T09:15:51.520Z,51.07
2023-05-19T09:18:20.451Z,50.53
2023-05-19T09:20:49.575Z,50.31
2023-05-19T09:23:19.174Z,50.22
2023-05-19T09:25:49.384Z,50.47
2023-05-19T09:28:24.213Z,50.12
2023-05-19T09:31:01.729Z,50.06
2023-05-19T09:33:31.187Z,50.21
2023-05-19T09:36:00.667Z,50.67
2023-05-19T09:38:30.815Z,50.05
2023-05-19T09:41:01.648Z,50.13
2023-05-19T09:43:31.839Z,49.50
2023-05-19T09:46:04.826Z,49.59
2023-05-19T09:48:34.653Z,49.99
2023-05-19T09:51:05.256Z,49.45
2023-05-19T09:53:35.538Z,49.37
2023-05-19T09:56:04.935Z,49.96
2023-05-19T09:58:36.544Z,49.73
2023-05-19T10:01:07.669Z,49.54
2023-05-19T10:03:36.939Z,50.06
2023-05-19T10:06:07.468Z,49.82
2023-05-19T10:08:38.236Z,49.39
2023-05-19T10:11:09.737Z,49.19
2023-05-19T10:13:40.069Z,49.28
2023-05-19T10:16:11.884Z,49.51
2023-05-19T10:18:41.138Z,49.22
2023-05-19T10:21:10.649Z,49.68
2023-05-19T10:23:39.625Z,49.43
2023-05-19T10:26:09.700Z,49.50
2023-05-19T10:28:40.655Z,49.44
2023-05-19T10:31:12.679Z,49.59
2023-05-19T10:33:48.703Z,49.49
2023-05-19T10:36:26.723Z,49.44
2023-05-19T10:39:00.080Z,49.28
2023-05-19T10:41:33.126Z,49.04
2023-05-19T10:44:09.249Z,49.14
2023-05-19T10:46:43.270Z,49.19
2023-05-19T10:49:20.858Z,49.26
2023-05-19T10:51:50.305Z,49.17
2023-05-19T10:54:39.259Z,49.23
2023-05-19T10:57:09.955Z,49.74
2023-05-19T10:59:39.502Z,49.68
2023-05-19T11:02:10.792Z,50.15
2023-05-19T11:04:40.625Z,49.95
2023-05-19T11:07:10.532Z,49.86
2023-05-19T11:09:41.750Z,50.14
2023-05-19T11:12:11.899Z,50.23
2023-05-19T11:14:41.518Z,50.16
2023-05-19T11:17:15.092Z,50.23
2023-05-19T11:19:53.811Z,50.18
2023-05-19T11:22:24.812Z,49.93
2023-05-19T11:24:55.929Z,50.10
2023-05-19T11:27:26.515Z,49.83
2023-05-19T11:29:56.164Z,49.86
2023-05-19T11:32:30.790Z,49.88
2023-05-19T11:35:00.239Z,50.13
2023-05-19T11:37:29.857Z,49.84
2023-05-19T11:39:59.119Z,50.06
2023-05-19T11:42:28.232Z,49.67
2023-05-19T11:44:57.249Z,49.75
2023-05-19T11:47:27.035Z,49.37
2023-05-19T11:49:57.677Z,49.56
2023-05-19T11:52:28.405Z,49.62
2023-05-19T11:55:01.080Z,49.39
2023-05-19T11:57:30.789Z,49.46
2023-05-19T12:00:03.653Z,48.91
2023-05-19T12:02:34.618Z,49.23
2023-05-19T12:05:05.146Z,49.18
2023-05-19T12:07:34.474Z,49.26
2023-05-19T12:10:06.602Z,49.14
2023-05-19T12:12:36.122Z,49.02
2023-05-19T12:15:05.647Z,49.00
2023-05-19T12:17:34.839Z,49.33
2023-05-19T12:20:06.207Z,49.25
2023-05-19T12:22:35.674Z,49.24
2023-05-19T12:25:05.254Z,49.48
2023-05-19T12:27:36.817Z,49.68
2023-05-19T12:30:06.113Z,49.83
2023-05-19T12:32:36.561Z,49.76
2023-05-19T12:35:07.527Z,49.73
2023-05-19T12:37:37.855Z,50.18
2023-05-19T12:40:07.513Z,50.27
2023-05-19T12:42:37.992Z,50.25
2023-05-19T12:45:07.452Z,50.15
2023-05-19T12:47:36.956Z,50.36
2023-05-19T12:50:09.283Z,50.27
2023-05-19T12:52:42.940Z,50.34
2023-05-19T12:55:12.400Z,50.09
2023-05-19T12:57:42.623Z,50.03
2023-05-19T13:00:15.024Z,49.99
2023-05-19T13:02:57.622Z,49.90
2023-05-19T13:05:28.394Z,49.87
2023-05-19T13:07:58.441Z,49.86
2023-05-19T13:10:28.187Z,50.30
2023-05-19T13:12:57.995Z,49.96
2023-05-19T13:15:27.558Z,49.92
2023-05-19T13:17:56.705Z,49.80
2023-05-19T13:20:28.207Z,49.98
2023-05-19T13:22:59.500Z,50.14
2023-05-19T13:25:28.554Z,50.50
2023-05-19T13:27:59.485Z,50.60
2023-05-19T13:30:28.559Z,50.44
2023-05-19T13:32:57.768Z,50.53
2023-05-19T13:35:26.758Z,50.66
2023-05-19T13:37:55.921Z,50.31
2023-05-19T13:40:28.312Z,50.90
2023-05-19T13:42:57.703Z,50.96
2023-05-19T13:45:26.537Z,50.73
2023-05-19T13:47:56.015Z,50.68
2023-05-19T13:50:24.937Z,50.52
2023-05-19T13:52:54.336Z,50.42
2023-05-19T13:55:23.675Z,50.64
2023-05-19T13:57:54.558Z,50.18
2023-05-19T14:00:24.042Z,50.19
2023-05-19T14:02:53.919Z,50.14
2023-05-19T14:05:23.052Z,49.74
2023-05-19T14:07:52.477Z,49.68
2023-05-19T14:10:23.125Z,49.90
2023-05-19T14:15:28.999Z,50.71
2023-05-19T14:17:59.206Z,50.38
2023-05-19T14:20:29.426Z,50.90
2023-05-19T14:22:58.878Z,50.90
2023-05-19T14:25:27.748Z,50.59
2023-05-19T14:27:56.957Z,50.53
2023-05-19T14:30:25.786Z,50.80
2023-05-19T14:32:56.601Z,50.74
2023-05-19T14:35:26.186Z,51.14
2023-05-19T14:37:55.452Z,51.96
2023-05-19T14:40:24.403Z,50.93
2023-05-19T14:42:53.879Z,51.21
2023-05-19T14:45:22.751Z,51.14
2023-05-19T14:47:52.755Z,51.88
2023-05-19T14:50:23.207Z,51.86
2023-05-19T14:52:52.419Z,51.25
2023-05-19T14:55:21.391Z,51.19
2023-05-19T14:57:50.969Z,51.49
2023-05-19T15:00:20.158Z,51.79
2023-05-19T15:02:49.663Z,51.70
2023-05-19T15:05:19.233Z,52.17
2023-05-19T15:07:50.282Z,51.78
2023-05-19T15:10:20.462Z,51.81
2023-05-19T15:12:50.124Z,52.42
2023-05-19T15:15:19.718Z,52.54
2023-05-19T15:17:48.907Z,53.30
2023-05-19T15:20:17.992Z,52.68
2023-05-19T15:22:47.196Z,52.07
2023-05-19T15:25:17.748Z,52.73
2023-05-19T15:27:46.980Z,53.94
2023-05-19T15:30:15.917Z,53.05
2023-05-19T15:32:45.246Z,54.77
2023-05-19T15:35:14.201Z,54.00
2023-05-19T15:37:43.474Z,53.78
2023-05-19T15:40:12.659Z,53.68
2023-05-19T15:42:44.820Z,53.30
2023-05-19T15:45:13.836Z,52.95
2023-05-19T15:47:43.008Z,53.63
2023-05-19T15:50:12.392Z,54.53
2023-05-19T15:52:41.930Z,53.70
2023-05-19T15:55:11.106Z,55.00
2023-05-19T15:57:40.717Z,53.62
2023-05-19T16:00:12.218Z,53.90
2023-05-19T16:02:41.821Z,53.65
2023-05-19T16:05:10.913Z,53.35
2023-05-19T16:07:42.109Z,53.12
2023-05-19T16:10:11.411Z,54.51
2023-05-19T16:12:40.762Z,53.66
2023-05-19T16:15:11.560Z,53.57
2023-05-19T16:17:41.410Z,53.40
2023-05-19T16:20:11.102Z,54.08
2023-05-19T16:22:40.370Z,53.55
2023-05-19T16:25:09.635Z,53.55
2023-05-19T16:27:38.938Z,53.45
2023-05-19T16:30:09.026Z,53.51
2023-05-19T16:32:42.662Z,53.89
2023-05-19T16:35:11.792Z,53.94
2023-05-19T16:37:40.945Z,53.81
2023-05-19T16:40:10.328Z,53.04
2023-05-19T16:42:39.442Z,54.04
2023-05-19T16:45:09.114Z,53.50
2023-05-19T16:47:39.678Z,53.06
2023-05-19T16:50:09.097Z,53.41
2023-05-19T16:52:38.211Z,54.57
2023-05-19T16:55:07.348Z,53.42
2023-05-19T16:57:36.620Z,53.32
2023-05-19T17:00:06.230Z,54.80
2023-05-19T17:02:35.452Z,53.73
2023-05-19T17:05:06.125Z,54.11
2023-05-19T17:07:35.456Z,54.13
2023-05-19T17:10:04.366Z,53.50
2023-05-19T17:12:33.693Z,54.02
2023-05-19T17:15:02.503Z,53.74
2023-05-19T17:17:31.750Z,53.29
2023-05-19T17:20:00.823Z,53.21
2023-05-19T17:22:31.410Z,53.65
2023-05-19T17:25:00.373Z,53.42
2023-05-19T17:27:29.513Z,53.25
2023-05-19T17:29:58.439Z,53.38
2023-05-19T17:32:29.131Z,53.61
2023-05-19T17:34:59.297Z,54.45
2023-05-19T17:37:28.603Z,53.56
2023-05-19T17:39:58.873Z,53.37
2023-05-19T17:42:29.153Z,53.46
2023-05-19T17:44:58.575Z,53.14
2023-05-19T17:47:27.744Z,53.48
2023-05-19T17:49:56.604Z,53.34
2023-05-19T17:52:26.562Z,53.85
2023-05-19T17:54:55.724Z,53.84
2023-05-19T17:57:26.998Z,53.51
2023-05-19T17:59:56.193Z,53.56
2023-05-19T18:02:26.357Z,53.58
2023-05-19T18:04:55.737Z,53.35
2023-05-19T18:07:26.223Z,54.17
2023-05-19T18:09:56.481Z,54.02
2023-05-19T18:12:27.210Z,54.04
2023-05-19T18:14:56.503Z,54.15
2023-05-19T18:17:25.705Z,54.22
2023-05-19T18:19:55.657Z,54.20
2023-05-19T18:22:24.849Z,54.41
2023-05-19T18:24:53.863Z,54.30
2023-05-19T18:27:22.964Z,54.32
2023-05-19T18:29:53.290Z,54.49
2023-05-19T18:32:22.689Z,54.45
2023-05-19T18:34:52.125Z,54.47
2023-05-19T18:37:21.395Z,55.41
2023-05-19T18:39:50.490Z,55.06
2023-05-19T18:42:19.884Z,55.09
2023-05-19T18:44:50.581Z,54.65
2023-05-19T18:47:22.851Z,54.71
2023-05-19T18:49:51.906Z,54.36
2023-05-19T18:52:21.784Z,55.13
2023-05-19T18:54:50.866Z,54.59
2023-05-19T18:57:20.548Z,54.63
2023-05-19T18:59:49.482Z,54.60
2023-05-19T19:02:19.232Z,54.40
2023-05-19T19:04:49.673Z,54.33
2023-05-19T19:07:19.507Z,54.68
2023-05-19T19:09:48.512Z,54.82
2023-05-19T19:12:19.078Z,54.63
2023-05-19T19:14:49.276Z,55.93
2023-05-19T19:17:18.443Z,55.29
2023-05-19T19:19:47.459Z,54.98
2023-05-19T19:22:18.336Z,54.70
2023-05-19T19:24:47.517Z,55.02
2023-05-19T19:27:19.975Z,54.78
2023-05-19T19:29:48.883Z,55.84
2023-05-19T19:32:18.356Z,55.97
2023-05-19T19:34:48.311Z,55.08
2023-05-19T19:37:19.025Z,55.32
2023-05-19T19:39:48.013Z,54.74
2023-05-19T19:42:17.205Z,54.67
2023-05-19T19:44:49.250Z,54.46
2023-05-19T19:47:18.552Z,54.96
2023-05-19T19:49:49.150Z,55.97
2023-05-19T19:52:21.262Z,55.00
2023-05-19T19:54:50.316Z,55.29
2023-05-19T19:57:19.457Z,57.90
2023-05-19T19:59:55.034Z,58.38
2023-05-19T20:02:24.795Z,57.07
2023-05-19T20:04:55.043Z,56.05
2023-05-19T20:07:27.284Z,58.90
2023-05-19T20:09:58.283Z,56.12
2023-05-19T20:12:30.104Z,56.60
2023-05-19T20:14:59.477Z,56.21
2023-05-19T20:17:28.740Z,58.33
2023-05-19T20:19:59.867Z,57.12
2023-05-19T20:22:30.802Z,56.83
2023-05-19T20:24:59.823Z,56.55
2023-05-19T20:27:28.944Z,56.98
2023-05-19T20:30:00.332Z,57.32
2023-05-19T20:32:29.754Z,56.02
2023-05-19T20:34:59.894Z,56.08
2023-05-19T20:37:31.485Z,56.34
2023-05-19T20:40:00.478Z,56.08
2023-05-19T20:42:29.608Z,55.52
2023-05-19T20:44:58.684Z,60.17
2023-05-19T20:47:30.271Z,55.95
2023-05-19T20:50:00.870Z,55.68
2023-05-19T20:52:33.086Z,55.73
2023-05-19T20:55:04.785Z,55.28
2023-05-19T20:57:34.208Z,55.49
2023-05-19T21:00:04.409Z,57.36
2023-05-19T21:02:34.689Z,55.84
2023-05-19T21:05:04.433Z,55.47
2023-05-19T21:07:36.689Z,55.61
2023-05-19T21:10:06.011Z,55.68
2023-05-19T21:12:35.760Z,56.96
2023-05-19T21:15:06.660Z,56.95
2023-05-19T21:17:35.896Z,55.60
2023-05-19T21:20:05.264Z,56.10
2023-05-19T21:22:36.832Z,56.04
2023-05-19T21:25:06.293Z,57.01
2023-05-19T21:27:39.574Z,55.68
2023-05-19T21:30:09.858Z,55.76
2023-05-19T21:32:39.137Z,56.31
2023-05-19T21:35:08.269Z,56.20
2023-05-19T21:37:38.878Z,56.30
2023-05-19T21:40:08.493Z,56.16
2023-05-19T21:42:37.632Z,55.87
2023-05-19T21:45:06.984Z,56.92
2023-05-19T21:47:36.483Z,56.20
2023-05-19T21:50:05.559Z,55.55
2023-05-19T21:52:36.143Z,55.55
2023-05-19T21:55:07.243Z,55.61
2023-05-19T21:57:38.399Z,55.29
2023-05-19T22:00:08.496Z,57.21
2023-05-19T22:02:41.049Z,55.29
2023-05-19T22:05:13.207Z,56.19
2023-05-19T22:07:42.780Z,55.45
2023-05-19T22:10:14.815Z,55.50
2023-05-19T22:12:46.893Z,55.72
2023-05-19T22:15:18.641Z,55.74
2023-05-19T22:17:47.919Z,55.87
2023-05-19T22:20:16.801Z,55.57
2023-05-19T22:22:47.440Z,55.45
2023-05-19T22:25:17.781Z,56.74
2023-05-19T22:27:47.116Z,57.62
2023-05-19T22:30:16.462Z,55.65
2023-05-19T22:32:45.743Z,56.37
2023-05-19T22:35:14.590Z,56.53
2023-05-19T22:37:43.870Z,57.00
2023-05-19T22:40:13.051Z,57.67
2023-05-19T22:42:43.546Z,57.04
2023-05-19T22:45:12.624Z,56.98
2023-05-19T22:47:41.882Z,57.36
2023-05-19T22:50:12.258Z,58.35
2023-05-19T22:52:41.551Z,59.21
2023-05-19T22:55:11.056Z,58.85
2023-05-19T22:57:40.343Z,59.12
2023-05-19T23:00:14.090Z,60.30
2023-05-19T23:02:43.455Z,59.42
2023-05-19T23:05:12.600Z,60.49
2023-05-19T23:07:41.700Z,60.88
2023-05-19T23:10:11.040Z,59.88
2023-05-19T23:12:40.810Z,59.16
2023-05-19T23:15:12.193Z,57.89
2023-05-19T23:17:41.474Z,57.53
2023-05-19T23:20:10.751Z,57.34
2023-05-19T23:22:39.940Z,57.71
2023-05-19T23:25:09.184Z,58.94
2023-05-19T23:27:38.499Z,58.03
2023-05-19T23:30:07.906Z,58.15
2023-05-19T23:32:38.606Z,58.08
2023-05-19T23:35:11.734Z,56.52
2023-05-19T23:37:41.019Z,57.35
2023-05-19T23:40:10.364Z,56.63
2023-05-19T23:42:39.529Z,59.25
2023-05-19T23:45:09.012Z,58.69
2023-05-19T23:47:39.765Z,57.08
2023-05-19T23:50:08.958Z,57.57
2023-05-19T23:52:38.068Z,59.58
2023-05-19T23:55:07.581Z,59.77
2023-05-19T23:57:36.783Z,58.41
